sensor_id;sensor_type;location;lat;lon;timestamp;P1;durP1;ratioP1;P2;durP2;ratioP2
25922;SDS011;13725;51.170;4.442;2022-10-22T00:02:24;15.05;;;3.53;;
25922;SDS011;13725;51.170;4.442;2022-10-22T00:04:52;12.35;;;3.30;;
25922;SDS011;13725;51.170;4.442;2022-10-22T00:07:18;11.85;;;3.30;;
25922;SDS011;13725;51.170;4.442;2022-10-22T00:09:45;18.70;;;3.78;;
25922;SDS011;13725;51.170;4.442;2022-10-22T00:12:12;9.80;;;3.33;;
25922;SDS011;13725;51.170;4.442;2022-10-22T00:14:39;11.82;;;3.83;;
25922;SDS011;13725;51.170;4.442;2022-10-22T00:17:06;12.93;;;3.88;;
25922;SDS011;13725;51.170;4.442;2022-10-22T00:19:32;12.75;;;3.60;;
25922;SDS011;13725;51.170;4.442;2022-10-22T00:21:57;12.43;;;3.30;;
25922;SDS011;13725;51.170;4.442;2022-10-22T00:24:23;11.20;;;3.30;;
25922;SDS011;13725;51.170;4.442;2022-10-22T00:26:50;14.27;;;2.97;;
25922;SDS011;13725;51.170;4.442;2022-10-22T00:29:16;16.52;;;4.88;;
25922;SDS011;13725;51.170;4.442;2022-10-22T00:31:45;9.80;;;2.95;;
25922;SDS011;13725;51.170;4.442;2022-10-22T00:34:17;11.60;;;3.03;;
25922;SDS011;13725;51.170;4.442;2022-10-22T00:36:45;10.13;;;3.38;;
25922;SDS011;13725;51.170;4.442;2022-10-22T00:39:11;15.73;;;3.10;;
25922;SDS011;13725;51.170;4.442;2022-10-22T00:41:40;13.98;;;3.40;;
25922;SDS011;13725;51.170;4.442;2022-10-22T00:44:06;8.60;;;2.92;;
25922;SDS011;13725;51.170;4.442;2022-10-22T00:46:52;8.15;;;2.88;;
25922;SDS011;13725;51.170;4.442;2022-10-22T00:49:18;15.93;;;2.90;;
25922;SDS011;13725;51.170;4.442;2022-10-22T00:51:44;10.10;;;2.97;;
25922;SDS011;13725;51.170;4.442;2022-10-22T00:54:10;8.52;;;3.10;;
25922;SDS011;13725;51.170;4.442;2022-10-22T00:56:36;16.90;;;3.53;;
25922;SDS011;13725;51.170;4.442;2022-10-22T00:59:02;8.85;;;2.88;;
25922;SDS011;13725;51.170;4.442;2022-10-22T01:01:29;11.18;;;2.90;;
25922;SDS011;13725;51.170;4.442;2022-10-22T01:03:56;8.88;;;3.20;;
25922;SDS011;13725;51.170;4.442;2022-10-22T01:06:31;9.02;;;2.92;;
25922;SDS011;13725;51.170;4.442;2022-10-22T01:12:09;13.40;;;3.08;;
25922;SDS011;13725;51.170;4.442;2022-10-22T01:14:51;17.48;;;3.00;;
25922;SDS011;13725;51.170;4.442;2022-10-22T01:17:38;15.80;;;3.50;;
25922;SDS011;13725;51.170;4.442;2022-10-22T01:22:54;11.25;;;2.72;;
25922;SDS011;13725;51.170;4.442;2022-10-22T01:25:36;11.60;;;2.95;;
25922;SDS011;13725;51.170;4.442;2022-10-22T01:31:00;12.32;;;3.33;;
25922;SDS011;13725;51.170;4.442;2022-10-22T01:33:27;16.83;;;3.05;;
25922;SDS011;13725;51.170;4.442;2022-10-22T01:35:55;10.32;;;2.67;;
25922;SDS011;13725;51.170;4.442;2022-10-22T01:38:24;10.75;;;3.08;;
25922;SDS011;13725;51.170;4.442;2022-10-22T01:40:50;11.63;;;2.70;;
25922;SDS011;13725;51.170;4.442;2022-10-22T01:43:17;11.82;;;4.13;;
25922;SDS011;13725;51.170;4.442;2022-10-22T01:45:44;9.38;;;2.97;;
25922;SDS011;13725;51.170;4.442;2022-10-22T01:53:58;12.63;;;3.03;;
25922;SDS011;13725;51.170;4.442;2022-10-22T02:07:49;13.15;;;2.90;;
25922;SDS011;13725;51.170;4.442;2022-10-22T02:10:18;10.73;;;2.60;;
25922;SDS011;13725;51.170;4.442;2022-10-22T02:12:47;8.80;;;2.80;;
25922;SDS011;13725;51.170;4.442;2022-10-22T02:15:17;13.45;;;2.83;;
25922;SDS011;13725;51.170;4.442;2022-10-22T02:17:44;10.35;;;3.20;;
25922;SDS011;13725;51.170;4.442;2022-10-22T02:20:18;8.18;;;2.90;;
25922;SDS011;13725;51.170;4.442;2022-10-22T02:22:52;11.30;;;2.90;;
25922;SDS011;13725;51.170;4.442;2022-10-22T02:25:20;12.27;;;2.60;;
25922;SDS011;13725;51.170;4.442;2022-10-22T02:27:48;8.25;;;2.67;;
25922;SDS011;13725;51.170;4.442;2022-10-22T02:30:20;11.55;;;2.60;;
25922;SDS011;13725;51.170;4.442;2022-10-22T02:32:55;9.85;;;3.03;;
25922;SDS011;13725;51.170;4.442;2022-10-22T02:35:32;10.32;;;2.85;;
25922;SDS011;13725;51.170;4.442;2022-10-22T02:37:59;11.15;;;2.80;;
25922;SDS011;13725;51.170;4.442;2022-10-22T02:40:26;12.68;;;3.85;;
25922;SDS011;13725;51.170;4.442;2022-10-22T02:42:54;10.40;;;2.40;;
25922;SDS011;13725;51.170;4.442;2022-10-22T02:45:20;11.30;;;2.63;;
25922;SDS011;13725;51.170;4.442;2022-10-22T02:47:46;12.20;;;2.65;;
25922;SDS011;13725;51.170;4.442;2022-10-22T02:50:12;12.48;;;2.70;;
25922;SDS011;13725;51.170;4.442;2022-10-22T02:52:38;8.77;;;2.90;;
25922;SDS011;13725;51.170;4.442;2022-10-22T02:55:05;8.98;;;2.58;;
25922;SDS011;13725;51.170;4.442;2022-10-22T02:57:31;12.38;;;2.50;;
25922;SDS011;13725;51.170;4.442;2022-10-22T02:59:57;11.80;;;2.55;;
25922;SDS011;13725;51.170;4.442;2022-10-22T03:02:23;8.00;;;2.38;;
25922;SDS011;13725;51.170;4.442;2022-10-22T03:04:49;7.63;;;3.03;;
25922;SDS011;13725;51.170;4.442;2022-10-22T03:07:14;14.88;;;3.05;;
25922;SDS011;13725;51.170;4.442;2022-10-22T03:09:40;11.30;;;2.63;;
25922;SDS011;13725;51.170;4.442;2022-10-22T03:12:07;11.70;;;2.53;;
25922;SDS011;13725;51.170;4.442;2022-10-22T03:14:33;13.95;;;2.63;;
25922;SDS011;13725;51.170;4.442;2022-10-22T03:16:59;12.38;;;2.50;;
25922;SDS011;13725;51.170;4.442;2022-10-22T03:19:25;12.52;;;2.15;;
25922;SDS011;13725;51.170;4.442;2022-10-22T03:21:58;11.40;;;2.72;;
25922;SDS011;13725;51.170;4.442;2022-10-22T03:24:40;12.65;;;2.35;;
25922;SDS011;13725;51.170;4.442;2022-10-22T03:27:08;13.82;;;2.83;;
25922;SDS011;13725;51.170;4.442;2022-10-22T03:29:37;13.45;;;2.22;;
25922;SDS011;13725;51.170;4.442;2022-10-22T03:32:05;9.98;;;2.30;;
25922;SDS011;13725;51.170;4.442;2022-10-22T03:34:31;15.85;;;3.28;;
25922;SDS011;13725;51.170;4.442;2022-10-22T03:36:57;6.38;;;2.20;;
25922;SDS011;13725;51.170;4.442;2022-10-22T03:39:24;9.73;;;2.33;;
25922;SDS011;13725;51.170;4.442;2022-10-22T03:41:51;8.35;;;2.25;;
25922;SDS011;13725;51.170;4.442;2022-10-22T03:44:17;7.20;;;2.45;;
25922;SDS011;13725;51.170;4.442;2022-10-22T03:46:44;10.80;;;2.45;;
25922;SDS011;13725;51.170;4.442;2022-10-22T03:49:10;9.00;;;2.70;;
25922;SDS011;13725;51.170;4.442;2022-10-22T03:51:36;8.00;;;2.17;;
25922;SDS011;13725;51.170;4.442;2022-10-22T03:54:02;12.88;;;2.58;;
25922;SDS011;13725;51.170;4.442;2022-10-22T03:56:29;10.20;;;3.65;;
25922;SDS011;13725;51.170;4.442;2022-10-22T03:58:55;13.95;;;3.05;;
25922;SDS011;13725;51.170;4.442;2022-10-22T04:01:23;17.02;;;2.25;;
25922;SDS011;13725;51.170;4.442;2022-10-22T04:03:49;15.13;;;2.65;;
25922;SDS011;13725;51.170;4.442;2022-10-22T04:06:15;12.45;;;2.25;;
25922;SDS011;13725;51.170;4.442;2022-10-22T04:08:42;10.80;;;1.95;;
25922;SDS011;13725;51.170;4.442;2022-10-22T04:11:09;10.85;;;1.92;;
25922;SDS011;13725;51.170;4.442;2022-10-22T04:13:36;7.45;;;1.70;;
25922;SDS011;13725;51.170;4.442;2022-10-22T04:16:08;5.55;;;1.77;;
25922;SDS011;13725;51.170;4.442;2022-10-22T04:18:36;6.25;;;1.90;;
25922;SDS011;13725;51.170;4.442;2022-10-22T04:21:03;7.20;;;2.10;;
25922;SDS011;13725;51.170;4.442;2022-10-22T04:23:30;13.80;;;2.55;;
25922;SDS011;13725;51.170;4.442;2022-10-22T04:25:58;11.65;;;2.53;;
25922;SDS011;13725;51.170;4.442;2022-10-22T04:28:26;11.25;;;2.22;;
25922;SDS011;13725;51.170;4.442;2022-10-22T04:30:52;13.10;;;2.88;;
25922;SDS011;13725;51.170;4.442;2022-10-22T04:33:17;7.32;;;2.03;;
25922;SDS011;13725;51.170;4.442;2022-10-22T04:35:44;10.35;;;1.80;;
25922;SDS011;13725;51.170;4.442;2022-10-22T04:38:09;7.78;;;2.03;;
25922;SDS011;13725;51.170;4.442;2022-10-22T04:40:35;10.23;;;2.00;;
25922;SDS011;13725;51.170;4.442;2022-10-22T04:43:01;10.65;;;2.15;;
25922;SDS011;13725;51.170;4.442;2022-10-22T04:45:27;8.77;;;1.95;;
25922;SDS011;13725;51.170;4.442;2022-10-22T04:47:53;19.15;;;3.13;;
25922;SDS011;13725;51.170;4.442;2022-10-22T04:50:18;16.35;;;3.10;;
25922;SDS011;13725;51.170;4.442;2022-10-22T04:52:44;8.50;;;2.47;;
25922;SDS011;13725;51.170;4.442;2022-10-22T04:55:10;5.90;;;1.70;;
25922;SDS011;13725;51.170;4.442;2022-10-22T04:57:35;15.27;;;2.40;;
25922;SDS011;13725;51.170;4.442;2022-10-22T05:00:03;15.25;;;2.50;;
25922;SDS011;13725;51.170;4.442;2022-10-22T05:02:29;9.07;;;1.80;;
25922;SDS011;13725;51.170;4.442;2022-10-22T05:04:55;9.80;;;2.05;;
25922;SDS011;13725;51.170;4.442;2022-10-22T05:07:20;11.23;;;2.00;;
25922;SDS011;13725;51.170;4.442;2022-10-22T05:09:47;11.68;;;2.17;;
25922;SDS011;13725;51.170;4.442;2022-10-22T05:12:14;6.65;;;1.90;;
25922;SDS011;13725;51.170;4.442;2022-10-22T05:14:39;9.77;;;1.80;;
25922;SDS011;13725;51.170;4.442;2022-10-22T05:17:05;9.23;;;1.65;;
25922;SDS011;13725;51.170;4.442;2022-10-22T05:19:31;13.88;;;2.28;;
25922;SDS011;13725;51.170;4.442;2022-10-22T05:21:58;7.05;;;1.80;;
25922;SDS011;13725;51.170;4.442;2022-10-22T05:24:25;8.70;;;1.80;;
25922;SDS011;13725;51.170;4.442;2022-10-22T05:26:53;12.98;;;2.30;;
25922;SDS011;13725;51.170;4.442;2022-10-22T05:29:20;8.52;;;1.80;;
25922;SDS011;13725;51.170;4.442;2022-10-22T05:31:47;6.70;;;1.95;;
25922;SDS011;13725;51.170;4.442;2022-10-22T05:34:13;7.70;;;1.55;;
25922;SDS011;13725;51.170;4.442;2022-10-22T05:36:39;10.32;;;2.00;;
25922;SDS011;13725;51.170;4.442;2022-10-22T05:39:05;6.45;;;1.92;;
25922;SDS011;13725;51.170;4.442;2022-10-22T05:41:31;13.00;;;2.00;;
25922;SDS011;13725;51.170;4.442;2022-10-22T05:43:58;11.23;;;1.90;;
25922;SDS011;13725;51.170;4.442;2022-10-22T05:46:25;9.77;;;1.83;;
25922;SDS011;13725;51.170;4.442;2022-10-22T05:48:55;7.97;;;1.73;;
25922;SDS011;13725;51.170;4.442;2022-10-22T05:51:23;8.70;;;2.25;;
25922;SDS011;13725;51.170;4.442;2022-10-22T05:53:51;13.30;;;2.10;;
25922;SDS011;13725;51.170;4.442;2022-10-22T05:56:19;17.10;;;2.65;;
25922;SDS011;13725;51.170;4.442;2022-10-22T05:58:45;10.60;;;1.83;;
25922;SDS011;13725;51.170;4.442;2022-10-22T06:01:15;12.70;;;2.33;;
25922;SDS011;13725;51.170;4.442;2022-10-22T06:03:43;8.80;;;1.70;;
25922;SDS011;13725;51.170;4.442;2022-10-22T06:08:55;10.15;;;1.80;;
25922;SDS011;13725;51.170;4.442;2022-10-22T06:11:25;12.95;;;2.10;;
25922;SDS011;13725;51.170;4.442;2022-10-22T06:13:51;8.10;;;1.75;;
25922;SDS011;13725;51.170;4.442;2022-10-22T06:16:16;9.20;;;2.50;;
25922;SDS011;13725;51.170;4.442;2022-10-22T06:18:43;12.40;;;2.20;;
25922;SDS011;13725;51.170;4.442;2022-10-22T06:21:10;15.35;;;2.10;;
25922;SDS011;13725;51.170;4.442;2022-10-22T06:23:38;12.07;;;2.30;;
25922;SDS011;13725;51.170;4.442;2022-10-22T06:26:05;16.20;;;2.38;;
25922;SDS011;13725;51.170;4.442;2022-10-22T06:28:34;11.40;;;1.90;;
25922;SDS011;13725;51.170;4.442;2022-10-22T06:31:01;16.63;;;2.25;;
25922;SDS011;13725;51.170;4.442;2022-10-22T06:33:29;16.13;;;2.17;;
25922;SDS011;13725;51.170;4.442;2022-10-22T06:36:03;34.45;;;3.75;;
25922;SDS011;13725;51.170;4.442;2022-10-22T06:38:30;7.97;;;2.20;;
25922;SDS011;13725;51.170;4.442;2022-10-22T06:41:00;16.48;;;2.15;;
25922;SDS011;13725;51.170;4.442;2022-10-22T06:43:30;15.43;;;2.47;;
25922;SDS011;13725;51.170;4.442;2022-10-22T06:45:59;14.98;;;3.38;;
25922;SDS011;13725;51.170;4.442;2022-10-22T06:48:26;15.18;;;1.90;;
25922;SDS011;13725;51.170;4.442;2022-10-22T06:50:52;8.30;;;2.25;;
25922;SDS011;13725;51.170;4.442;2022-10-22T06:53:18;10.27;;;2.15;;
25922;SDS011;13725;51.170;4.442;2022-10-22T06:55:44;13.32;;;2.17;;
25922;SDS011;13725;51.170;4.442;2022-10-22T06:58:09;12.63;;;1.90;;
25922;SDS011;13725;51.170;4.442;2022-10-22T07:00:35;7.22;;;1.73;;
25922;SDS011;13725;51.170;4.442;2022-10-22T07:03:01;9.15;;;3.08;;
25922;SDS011;13725;51.170;4.442;2022-10-22T07:05:27;6.03;;;1.45;;
25922;SDS011;13725;51.170;4.442;2022-10-22T07:07:52;17.02;;;2.25;;
25922;SDS011;13725;51.170;4.442;2022-10-22T07:10:18;11.13;;;2.00;;
25922;SDS011;13725;51.170;4.442;2022-10-22T07:12:44;8.02;;;1.95;;
25922;SDS011;13725;51.170;4.442;2022-10-22T07:15:10;8.23;;;1.92;;
25922;SDS011;13725;51.170;4.442;2022-10-22T07:17:35;12.27;;;3.35;;
25922;SDS011;13725;51.170;4.442;2022-10-22T07:20:01;11.75;;;2.92;;
25922;SDS011;13725;51.170;4.442;2022-10-22T07:22:28;10.15;;;2.00;;
25922;SDS011;13725;51.170;4.442;2022-10-22T07:24:53;13.65;;;1.92;;
25922;SDS011;13725;51.170;4.442;2022-10-22T07:27:19;13.20;;;2.28;;
25922;SDS011;13725;51.170;4.442;2022-10-22T07:29:45;10.05;;;1.90;;
25922;SDS011;13725;51.170;4.442;2022-10-22T07:32:10;11.65;;;1.65;;
25922;SDS011;13725;51.170;4.442;2022-10-22T07:34:36;11.77;;;2.00;;
25922;SDS011;13725;51.170;4.442;2022-10-22T07:37:02;8.25;;;2.72;;
25922;SDS011;13725;51.170;4.442;2022-10-22T07:39:28;9.43;;;1.90;;
25922;SDS011;13725;51.170;4.442;2022-10-22T07:41:54;9.00;;;2.10;;
25922;SDS011;13725;51.170;4.442;2022-10-22T07:44:19;13.88;;;2.03;;
25922;SDS011;13725;51.170;4.442;2022-10-22T07:46:45;9.52;;;2.13;;
25922;SDS011;13725;51.170;4.442;2022-10-22T07:49:11;13.07;;;2.65;;
25922;SDS011;13725;51.170;4.442;2022-10-22T07:51:36;8.02;;;1.77;;
25922;SDS011;13725;51.170;4.442;2022-10-22T07:54:02;9.07;;;1.80;;
25922;SDS011;13725;51.170;4.442;2022-10-22T07:56:28;10.38;;;1.92;;
25922;SDS011;13725;51.170;4.442;2022-10-22T07:58:54;9.52;;;1.85;;
25922;SDS011;13725;51.170;4.442;2022-10-22T08:01:20;7.88;;;1.63;;
25922;SDS011;13725;51.170;4.442;2022-10-22T08:03:45;8.95;;;2.97;;
25922;SDS011;13725;51.170;4.442;2022-10-22T08:06:11;12.07;;;3.22;;
25922;SDS011;13725;51.170;4.442;2022-10-22T08:08:38;17.58;;;2.85;;
25922;SDS011;13725;51.170;4.442;2022-10-22T08:11:03;11.18;;;1.58;;
25922;SDS011;13725;51.170;4.442;2022-10-22T08:13:29;9.50;;;2.40;;
25922;SDS011;13725;51.170;4.442;2022-10-22T08:15:56;7.30;;;2.00;;
25922;SDS011;13725;51.170;4.442;2022-10-22T08:18:24;12.40;;;2.20;;
25922;SDS011;13725;51.170;4.442;2022-10-22T08:20:50;8.90;;;2.40;;
25922;SDS011;13725;51.170;4.442;2022-10-22T08:23:17;10.63;;;2.10;;
25922;SDS011;13725;51.170;4.442;2022-10-22T08:25:44;11.68;;;2.05;;
25922;SDS011;13725;51.170;4.442;2022-10-22T08:28:09;8.68;;;1.95;;
25922;SDS011;13725;51.170;4.442;2022-10-22T08:30:35;6.15;;;1.50;;
25922;SDS011;13725;51.170;4.442;2022-10-22T08:33:03;7.65;;;1.42;;
25922;SDS011;13725;51.170;4.442;2022-10-22T08:35:29;9.70;;;2.30;;
25922;SDS011;13725;51.170;4.442;2022-10-22T08:37:55;8.93;;;1.98;;
25922;SDS011;13725;51.170;4.442;2022-10-22T08:40:42;5.90;;;1.60;;
25922;SDS011;13725;51.170;4.442;2022-10-22T08:48:44;9.95;;;1.58;;
25922;SDS011;13725;51.170;4.442;2022-10-22T08:51:12;9.85;;;1.45;;
25922;SDS011;13725;51.170;4.442;2022-10-22T08:56:34;9.02;;;1.83;;
25922;SDS011;13725;51.170;4.442;2022-10-22T08:59:03;9.10;;;1.70;;
25922;SDS011;13725;51.170;4.442;2022-10-22T09:01:50;9.48;;;1.92;;
25922;SDS011;13725;51.170;4.442;2022-10-22T09:04:20;9.80;;;1.80;;
25922;SDS011;13725;51.170;4.442;2022-10-22T09:07:10;6.25;;;1.40;;
25922;SDS011;13725;51.170;4.442;2022-10-22T09:09:37;10.13;;;2.55;;
25922;SDS011;13725;51.170;4.442;2022-10-22T09:12:12;7.28;;;1.60;;
25922;SDS011;13725;51.170;4.442;2022-10-22T09:14:40;6.63;;;1.33;;
25922;SDS011;13725;51.170;4.442;2022-10-22T09:17:13;8.60;;;1.52;;
25922;SDS011;13725;51.170;4.442;2022-10-22T09:25:49;9.30;;;1.83;;
25922;SDS011;13725;51.170;4.442;2022-10-22T09:28:16;6.90;;;1.50;;
25922;SDS011;13725;51.170;4.442;2022-10-22T09:30:42;9.85;;;1.50;;
25922;SDS011;13725;51.170;4.442;2022-10-22T09:35:52;7.03;;;1.83;;
25922;SDS011;13725;51.170;4.442;2022-10-22T09:38:27;6.50;;;1.33;;
25922;SDS011;13725;51.170;4.442;2022-10-22T09:40:55;11.48;;;2.20;;
25922;SDS011;13725;51.170;4.442;2022-10-22T09:43:22;8.27;;;1.90;;
25922;SDS011;13725;51.170;4.442;2022-10-22T09:45:48;9.95;;;1.70;;
25922;SDS011;13725;51.170;4.442;2022-10-22T09:48:27;10.27;;;1.98;;
25922;SDS011;13725;51.170;4.442;2022-10-22T09:51:02;5.68;;;1.58;;
25922;SDS011;13725;51.170;4.442;2022-10-22T09:53:36;5.63;;;1.20;;
25922;SDS011;13725;51.170;4.442;2022-10-22T09:56:08;7.90;;;1.98;;
25922;SDS011;13725;51.170;4.442;2022-10-22T09:58:43;10.63;;;2.70;;
25922;SDS011;13725;51.170;4.442;2022-10-22T10:01:30;3.70;;;1.08;;
25922;SDS011;13725;51.170;4.442;2022-10-22T10:04:02;6.72;;;1.48;;
25922;SDS011;13725;51.170;4.442;2022-10-22T10:06:30;4.97;;;1.38;;
25922;SDS011;13725;51.170;4.442;2022-10-22T10:08:57;8.73;;;1.55;;
25922;SDS011;13725;51.170;4.442;2022-10-22T10:11:28;7.95;;;1.77;;
25922;SDS011;13725;51.170;4.442;2022-10-22T10:14:11;7.45;;;1.75;;
25922;SDS011;13725;51.170;4.442;2022-10-22T10:16:57;8.23;;;1.45;;
25922;SDS011;13725;51.170;4.442;2022-10-22T10:19:45;5.60;;;1.48;;
25922;SDS011;13725;51.170;4.442;2022-10-22T10:25:51;5.07;;;1.35;;
25922;SDS011;13725;51.170;4.442;2022-10-22T10:28:31;7.40;;;1.40;;
25922;SDS011;13725;51.170;4.442;2022-10-22T10:34:12;8.20;;;1.67;;
25922;SDS011;13725;51.170;4.442;2022-10-22T10:50:46;9.20;;;1.77;;
25922;SDS011;13725;51.170;4.442;2022-10-22T10:53:36;6.20;;;1.50;;
25922;SDS011;13725;51.170;4.442;2022-10-22T10:56:22;7.72;;;1.60;;
25922;SDS011;13725;51.170;4.442;2022-10-22T10:59:16;5.22;;;1.60;;
25922;SDS011;13725;51.170;4.442;2022-10-22T11:07:30;7.07;;;2.33;;
25922;SDS011;13725;51.170;4.442;2022-10-22T11:12:38;4.57;;;1.65;;
25922;SDS011;13725;51.170;4.442;2022-10-22T11:15:12;5.22;;;1.60;;
25922;SDS011;13725;51.170;4.442;2022-10-22T11:21:31;7.97;;;1.60;;
25922;SDS011;13725;51.170;4.442;2022-10-22T11:24:17;8.50;;;1.75;;
25922;SDS011;13725;51.170;4.442;2022-10-22T11:27:01;8.63;;;1.88;;
25922;SDS011;13725;51.170;4.442;2022-10-22T11:29:42;6.22;;;1.50;;
25922;SDS011;13725;51.170;4.442;2022-10-22T11:32:21;7.55;;;1.67;;
25922;SDS011;13725;51.170;4.442;2022-10-22T11:34:52;7.60;;;1.40;;
25922;SDS011;13725;51.170;4.442;2022-10-22T11:37:20;4.68;;;1.25;;
25922;SDS011;13725;51.170;4.442;2022-10-22T11:39:57;10.23;;;1.75;;
25922;SDS011;13725;51.170;4.442;2022-10-22T11:42:33;13.40;;;2.17;;
25922;SDS011;13725;51.170;4.442;2022-10-22T11:45:05;9.98;;;1.60;;
25922;SDS011;13725;51.170;4.442;2022-10-22T11:50:24;7.45;;;1.38;;
25922;SDS011;13725;51.170;4.442;2022-10-22T11:55:45;11.63;;;1.80;;
25922;SDS011;13725;51.170;4.442;2022-10-22T12:06:04;7.00;;;1.83;;
25922;SDS011;13725;51.170;4.442;2022-10-22T12:11:21;7.72;;;1.65;;
25922;SDS011;13725;51.170;4.442;2022-10-22T12:14:11;6.40;;;1.33;;
25922;SDS011;13725;51.170;4.442;2022-10-22T12:17:09;8.27;;;1.40;;
25922;SDS011;13725;51.170;4.442;2022-10-22T12:25:05;5.95;;;1.50;;
25922;SDS011;13725;51.170;4.442;2022-10-22T12:27:41;14.38;;;1.50;;
25922;SDS011;13725;51.170;4.442;2022-10-22T12:32:50;10.45;;;2.33;;
25922;SDS011;13725;51.170;4.442;2022-10-22T12:35:19;8.05;;;1.42;;
25922;SDS011;13725;51.170;4.442;2022-10-22T12:37:48;10.23;;;1.75;;
25922;SDS011;13725;51.170;4.442;2022-10-22T12:40:22;4.68;;;1.38;;
25922;SDS011;13725;51.170;4.442;2022-10-22T12:42:54;8.63;;;1.50;;
25922;SDS011;13725;51.170;4.442;2022-10-22T12:45:32;13.18;;;2.60;;
25922;SDS011;13725;51.170;4.442;2022-10-22T12:48:01;10.20;;;1.83;;
25922;SDS011;13725;51.170;4.442;2022-10-22T12:50:33;8.85;;;1.95;;
25922;SDS011;13725;51.170;4.442;2022-10-22T12:53:04;4.70;;;1.50;;
25922;SDS011;13725;51.170;4.442;2022-10-22T12:55:41;5.82;;;1.38;;
25922;SDS011;13725;51.170;4.442;2022-10-22T12:58:14;6.82;;;1.35;;
25922;SDS011;13725;51.170;4.442;2022-10-22T13:00:44;2.83;;;1.13;;
25922;SDS011;13725;51.170;4.442;2022-10-22T13:03:19;6.00;;;1.73;;
25922;SDS011;13725;51.170;4.442;2022-10-22T13:05:51;9.15;;;2.80;;
25922;SDS011;13725;51.170;4.442;2022-10-22T13:08:17;7.93;;;1.63;;
25922;SDS011;13725;51.170;4.442;2022-10-22T13:10:51;6.47;;;1.95;;
25922;SDS011;13725;51.170;4.442;2022-10-22T13:13:28;5.93;;;1.48;;
25922;SDS011;13725;51.170;4.442;2022-10-22T13:15:54;6.32;;;2.05;;
25922;SDS011;13725;51.170;4.442;2022-10-22T13:18:22;6.30;;;1.77;;
25922;SDS011;13725;51.170;4.442;2022-10-22T13:20:54;9.25;;;2.15;;
25922;SDS011;13725;51.170;4.442;2022-10-22T13:23:22;7.47;;;1.67;;
25922;SDS011;13725;51.170;4.442;2022-10-22T13:26:00;11.80;;;1.75;;
25922;SDS011;13725;51.170;4.442;2022-10-22T13:28:35;6.03;;;1.73;;
25922;SDS011;13725;51.170;4.442;2022-10-22T13:31:02;9.15;;;1.92;;
25922;SDS011;13725;51.170;4.442;2022-10-22T13:33:38;5.80;;;1.75;;
25922;SDS011;13725;51.170;4.442;2022-10-22T13:36:07;6.70;;;2.25;;
25922;SDS011;13725;51.170;4.442;2022-10-22T13:38:37;6.93;;;1.80;;
25922;SDS011;13725;51.170;4.442;2022-10-22T13:41:02;6.93;;;1.90;;
25922;SDS011;13725;51.170;4.442;2022-10-22T13:43:29;12.25;;;2.45;;
25922;SDS011;13725;51.170;4.442;2022-10-22T13:45:56;7.07;;;1.90;;
25922;SDS011;13725;51.170;4.442;2022-10-22T13:48:23;11.13;;;1.60;;
25922;SDS011;13725;51.170;4.442;2022-10-22T13:50:50;6.57;;;2.00;;
25922;SDS011;13725;51.170;4.442;2022-10-22T13:53:21;5.60;;;1.30;;
25922;SDS011;13725;51.170;4.442;2022-10-22T13:55:52;5.38;;;1.65;;
25922;SDS011;13725;51.170;4.442;2022-10-22T13:58:19;11.48;;;2.35;;
25922;SDS011;13725;51.170;4.442;2022-10-22T14:00:56;3.67;;;1.10;;
25922;SDS011;13725;51.170;4.442;2022-10-22T14:03:25;5.55;;;1.52;;
25922;SDS011;13725;51.170;4.442;2022-10-22T14:05:54;6.85;;;1.42;;
25922;SDS011;13725;51.170;4.442;2022-10-22T14:08:20;8.02;;;1.92;;
25922;SDS011;13725;51.170;4.442;2022-10-22T14:10:47;9.30;;;1.88;;
25922;SDS011;13725;51.170;4.442;2022-10-22T14:13:13;9.43;;;1.75;;
25922;SDS011;13725;51.170;4.442;2022-10-22T14:15:41;5.85;;;1.50;;
25922;SDS011;13725;51.170;4.442;2022-10-22T14:18:10;4.95;;;1.38;;
25922;SDS011;13725;51.170;4.442;2022-10-22T14:20:40;8.93;;;1.88;;
25922;SDS011;13725;51.170;4.442;2022-10-22T14:23:17;5.00;;;1.17;;
25922;SDS011;13725;51.170;4.442;2022-10-22T14:25:44;5.18;;;1.38;;
25922;SDS011;13725;51.170;4.442;2022-10-22T14:28:10;5.03;;;1.48;;
25922;SDS011;13725;51.170;4.442;2022-10-22T14:30:37;6.35;;;1.63;;
25922;SDS011;13725;51.170;4.442;2022-10-22T14:35:41;7.90;;;1.20;;
25922;SDS011;13725;51.170;4.442;2022-10-22T14:38:07;2.97;;;1.63;;
25922;SDS011;13725;51.170;4.442;2022-10-22T14:40:33;2.90;;;1.05;;
25922;SDS011;13725;51.170;4.442;2022-10-22T14:42:58;4.82;;;1.30;;
25922;SDS011;13725;51.170;4.442;2022-10-22T14:45:25;8.75;;;1.80;;
25922;SDS011;13725;51.170;4.442;2022-10-22T14:47:51;9.73;;;1.45;;
25922;SDS011;13725;51.170;4.442;2022-10-22T14:50:19;5.00;;;0.98;;
25922;SDS011;13725;51.170;4.442;2022-10-22T14:52:45;8.30;;;1.35;;
25922;SDS011;13725;51.170;4.442;2022-10-22T14:55:12;6.13;;;1.60;;
25922;SDS011;13725;51.170;4.442;2022-10-22T14:57:39;6.80;;;1.33;;
25922;SDS011;13725;51.170;4.442;2022-10-22T15:00:06;7.15;;;1.83;;
25922;SDS011;13725;51.170;4.442;2022-10-22T15:02:42;8.52;;;1.23;;
25922;SDS011;13725;51.170;4.442;2022-10-22T15:05:08;4.90;;;1.10;;
25922;SDS011;13725;51.170;4.442;2022-10-22T15:07:34;5.80;;;1.10;;
25922;SDS011;13725;51.170;4.442;2022-10-22T15:09:59;11.07;;;2.15;;
25922;SDS011;13725;51.170;4.442;2022-10-22T15:12:26;6.38;;;1.35;;
25922;SDS011;13725;51.170;4.442;2022-10-22T15:14:52;7.80;;;1.77;;
25922;SDS011;13725;51.170;4.442;2022-10-22T15:17:17;5.75;;;1.00;;
25922;SDS011;13725;51.170;4.442;2022-10-22T15:19:43;4.55;;;0.90;;
25922;SDS011;13725;51.170;4.442;2022-10-22T15:22:10;4.30;;;0.85;;
25922;SDS011;13725;51.170;4.442;2022-10-22T15:24:36;6.30;;;1.38;;
25922;SDS011;13725;51.170;4.442;2022-10-22T15:27:03;2.70;;;1.08;;
25922;SDS011;13725;51.170;4.442;2022-10-22T15:29:29;6.15;;;1.15;;
25922;SDS011;13725;51.170;4.442;2022-10-22T15:31:56;8.13;;;1.30;;
25922;SDS011;13725;51.170;4.442;2022-10-22T15:34:27;7.95;;;1.15;;
25922;SDS011;13725;51.170;4.442;2022-10-22T15:36:55;5.88;;;1.20;;
25922;SDS011;13725;51.170;4.442;2022-10-22T15:39:22;6.20;;;1.17;;
25922;SDS011;13725;51.170;4.442;2022-10-22T15:41:49;7.97;;;1.75;;
25922;SDS011;13725;51.170;4.442;2022-10-22T15:44:16;5.45;;;1.63;;
25922;SDS011;13725;51.170;4.442;2022-10-22T15:46:44;6.28;;;1.67;;
25922;SDS011;13725;51.170;4.442;2022-10-22T15:49:09;4.32;;;1.23;;
25922;SDS011;13725;51.170;4.442;2022-10-22T15:51:36;4.35;;;1.38;;
25922;SDS011;13725;51.170;4.442;2022-10-22T15:54:02;5.65;;;1.55;;
25922;SDS011;13725;51.170;4.442;2022-10-22T15:56:28;4.53;;;0.95;;
25922;SDS011;13725;51.170;4.442;2022-10-22T15:58:55;8.10;;;1.98;;
25922;SDS011;13725;51.170;4.442;2022-10-22T16:01:23;8.32;;;1.40;;
25922;SDS011;13725;51.170;4.442;2022-10-22T16:03:50;8.00;;;1.40;;
25922;SDS011;13725;51.170;4.442;2022-10-22T16:06:27;12.52;;;1.90;;
25922;SDS011;13725;51.170;4.442;2022-10-22T16:09:05;6.78;;;1.30;;
25922;SDS011;13725;51.170;4.442;2022-10-22T16:11:33;7.38;;;1.60;;
25922;SDS011;13725;51.170;4.442;2022-10-22T16:13:59;9.57;;;2.35;;
25922;SDS011;13725;51.170;4.442;2022-10-22T16:16:26;8.15;;;1.33;;
25922;SDS011;13725;51.170;4.442;2022-10-22T16:18:53;6.28;;;1.88;;
25922;SDS011;13725;51.170;4.442;2022-10-22T16:21:20;8.68;;;1.27;;
25922;SDS011;13725;51.170;4.442;2022-10-22T16:23:47;5.63;;;1.40;;
25922;SDS011;13725;51.170;4.442;2022-10-22T16:26:13;5.47;;;1.92;;
25922;SDS011;13725;51.170;4.442;2022-10-22T16:28:40;4.18;;;1.30;;
25922;SDS011;13725;51.170;4.442;2022-10-22T16:31:08;5.95;;;1.70;;
25922;SDS011;13725;51.170;4.442;2022-10-22T16:33:36;7.57;;;2.00;;
25922;SDS011;13725;51.170;4.442;2022-10-22T16:36:04;8.32;;;2.78;;
25922;SDS011;13725;51.170;4.442;2022-10-22T16:38:30;6.05;;;1.88;;
25922;SDS011;13725;51.170;4.442;2022-10-22T16:43:45;10.57;;;2.08;;